Coral Leaf — PHNI — position and weather

sailwx.info

Track history (hours):
 
Tides and Currents Weather Stations Pressure Air Temp Water Temp Dewpoint Dewpoint Depression Visibility Wind Speed Wind Dir Waves Ship Positions

Coral Leaf

Last reported at 2015-Sep-04 14:33 UTC. Time now 2015-Sep-04 14:38 UTC.
Position N 51°28' E 003°42'.

Length 108 m; draft 6.8 m.

Type: Ship (hazmat cat A). MMSI: 244036000.

Date/timePositionNaut miles runAvg speedWind from/ knotsBaromVisibWave heightAir tempDewpointWater temp
2015-Sep-04 14:33N 51°28' E 003°42'0 0.0
2015-Sep-04 13:33N 51°28' E 003°42'0 0.0
2015-Sep-04 12:33N 51°28' E 003°42'0 0.0
2015-Sep-04 11:33N 51°28' E 003°42'0 0.0
2015-Sep-04 10:33N 51°28' E 003°42'0 0.0
2015-Sep-04 09:33N 51°28' E 003°42'0 0.0
2015-Sep-04 08:33N 51°28' E 003°42'0 0.0
2015-Sep-04 07:33N 51°28' E 003°42'4 4.3
2015-Sep-04 06:34N 51°26' E 003°36'1212.4
2015-Sep-04 05:33N 51°35' E 003°23'10 9.8
2015-Sep-04 04:32N 51°45' E 003°18'6 0.5
2015-Sep-03 17:33N 51°49' E 003°22'11013.7
2015-Sep-03 09:33N 53°29' E 004°38'1312.8
2015-Sep-03 08:33N 53°33' E 004°59'1312.7
2015-Sep-03 07:33N 53°37' E 005°19'1413.8
2015-Sep-03 06:33N 53°41' E 005°41'1514.7
2015-Sep-03 05:34N 53°46' E 006°05'1614.9
2015-Sep-03 04:31N 53°52' E 006°29'1414.4
2015-Sep-03 03:33N 53°55' E 006°52'1414.1
2015-Sep-03 02:33N 53°58' E 007°16'1413.4
2015-Sep-03 01:33N 54°01' E 007°38'1212.6
2015-Sep-03 00:33N 54°01' E 007°59'1111.2
2015-Sep-02 23:33N 53°60' E 008°18'1212.5
2015-Sep-02 22:33N 53°57' E 008°39'1313.4
2015-Sep-02 21:34N 53°51' E 008°59'6 6.1
2015-Sep-02 20:33N 53°54' E 009°09'5 5.2
2015-Sep-02 19:34N 53°57' E 009°15'9 8.8
2015-Sep-02 18:33N 54°06' E 009°20'8 8.1
2015-Sep-02 17:33N 54°11' E 009°30'4 3.9
2015-Sep-02 16:33N 54°13' E 009°36'7 6.6
2015-Sep-02 15:33N 54°18' E 009°43'7 6.7
2015-Sep-02 14:33N 54°21' E 009°53'4 4.2
2015-Sep-02 13:33N 54°21' E 010°00'4 4.3
2015-Sep-02 12:33N 54°22' E 010°07'1 1.1
2015-Sep-02 11:34N 54°22' E 010°09'8 7.6
2015-Sep-02 10:33N 54°29' E 010°15'1212.2
2015-Sep-02 09:33N 54°34' E 010°34'1413.7
2015-Sep-02 08:33N 54°36' E 010°58'1312.7
2015-Sep-02 07:33N 54°34' E 011°19'1312.9
2015-Sep-02 06:33N 54°28' E 011°39'1212.4
2015-Sep-02 05:33N 54°26' E 012°00'1211.5
2015-Sep-02 04:32N 54°35' E 012°14'5413.4
2015-Sep-02 00:31N 54°59' E 013°38'1313.4
2015-Sep-01 23:33N 55°03' E 013°58'1313.1
2015-Sep-01 22:34N 55°12' E 014°16'1413.9
2015-Sep-01 21:33N 55°23' E 014°31'1413.8
2015-Sep-01 20:34N 55°31' E 014°50'1414.1
2015-Sep-01 19:33N 55°38' E 015°12'2814.0
2015-Sep-01 17:34N 55°52' E 015°55'31814.2
2015-Aug-31 19:09N 59°36' E 022°60'914.7
2015-Aug-31 18:30N 59°38' E 023°18'1414.6
2015-Aug-31 17:33N 59°42' E 023°44'1614.5
2015-Aug-31 16:26N 59°46' E 024°15'4214.3
2015-Aug-31 13:28N 60°02' E 025°33'34 1.2
2015-Aug-30 09:15N 59°44' E 024°37'1115.8
2015-Aug-30 08:33N 59°42' E 024°16'1615.7
2015-Aug-30 07:33N 59°37' E 023°46'1615.7
2015-Aug-30 06:33N 59°32' E 023°16'34615.6
2015-Aug-29 08:20N 55°37' E 015°23'1316.0
2015-Aug-29 07:34N 55°31' E 015°04'1616.1
2015-Aug-29 06:34N 55°23' E 014°39'1616.1
2015-Aug-29 05:34N 55°10' E 014°22'1515.5
2015-Aug-29 04:33N 54°60' E 014°02'1615.8
2015-Aug-29 03:33N 54°55' E 013°36'1815.8
2015-Aug-29 02:26N 54°49' E 013°07'1416.0
2015-Aug-29 01:33N 54°44' E 012°43'1816.0
2015-Aug-29 00:27N 54°35' E 012°18'1314.7
2015-Aug-28 23:33N 54°24' E 012°04'1615.8
2015-Aug-28 22:33N 54°27' E 011°38'1616.4
2015-Aug-28 21:34N 54°34' E 011°12'1616.3
2015-Aug-28 20:33N 54°34' E 010°44'1515.4
2015-Aug-28 19:34N 54°30' E 010°19'10 9.6
2015-Aug-28 18:33N 54°22' E 010°09'3 3.4
2015-Aug-28 17:33N 54°22' E 010°03'3 3.4
2015-Aug-28 16:33N 54°20' E 009°57'6 6.3
2015-Aug-28 15:33N 54°21' E 009°47'8 7.6
2015-Aug-28 14:33N 54°16' E 009°38'5 5.2
2015-Aug-28 13:33N 54°12' E 009°32'8 8.1
2015-Aug-28 12:31N 54°08' E 009°20'8 8.2
2015-Aug-28 11:33N 53°60' E 009°17'8 8.0
2015-Aug-28 10:33N 53°54' E 009°09'2 2.0
2015-Aug-28 09:33N 53°53' E 009°12'1212.5
2015-Aug-28 08:34N 53°44' E 009°27'5 0.2
2015-Aug-27 07:23N 53°39' E 009°31'6 7.6
2015-Aug-27 06:34N 53°44' E 009°25'1312.9
2015-Aug-27 05:33N 53°53' E 009°09'1 1.4
2015-Aug-27 04:33N 53°54' E 009°10'1 1.5
2015-Aug-27 03:33N 53°55' E 009°11'8 7.9
2015-Aug-27 02:33N 54°02' E 009°18'7 7.0
2015-Aug-27 01:31N 54°09' E 009°22'1 0.6
2015-Aug-27 00:27N 54°09' E 009°23'7 7.7
2015-Aug-26 23:33N 54°12' E 009°33'5 4.1
2015-Aug-26 22:28N 54°16' E 009°38'6 7.0
2015-Aug-26 21:33N 54°21' E 009°45'8 8.1
2015-Aug-26 20:33N 54°21' E 009°59'6 5.7
2015-Aug-26 19:33N 54°22' E 010°08'1 1.4
2015-Aug-26 18:33N 54°23' E 010°11'8 8.4
2015-Aug-26 17:33N 54°30' E 010°17'2 1.6
2015-Aug-26 16:33N 54°32' E 010°17'1 1.1
2015-Aug-26 15:33N 54°32' E 010°19'8 7.6
2015-Aug-26 14:33N 54°34' E 010°32'1514.9
2015-Aug-26 13:33N 54°36' E 010°57'1414.2
2015-Aug-26 12:33N 54°33' E 011°21'1414.2
2015-Aug-26 11:33N 54°28' E 011°44'1414.0
2015-Aug-26 10:33N 54°27' E 012°08'5513.1
2015-Aug-26 06:24N 54°57' E 013°27'1214.5
2015-Aug-26 05:33N 55°01' E 013°47'1413.9
2015-Aug-26 04:34N 55°07' E 014°09'1414.1
2015-Aug-26 03:33N 55°18' E 014°24'1414.0
2015-Aug-26 02:33N 55°28' E 014°41'1414.1
2015-Aug-26 01:33N 55°35' E 015°02'1414.1
2015-Aug-26 00:33N 55°42' E 015°24'  
Track history (hours):
 
Tides and Currents Weather Stations Pressure Air Temp Water Temp Dewpoint Dewpoint Depression Visibility Wind Speed Wind Dir Waves Ship Positions

Coral Leaf

Last reported at 2015-Sep-04 14:33 UTC. Time now 2015-Sep-04 14:38 UTC.
Position N 51°28' E 003°42'.

Length 108 m; draft 6.8 m.

Type: Ship (hazmat cat A). MMSI: 244036000.

Date/timePositionNaut miles runAvg speedWind from/ knotsBaromVisibWave heightAir tempDewpointWater temp
2015-Sep-04 14:33N 51°28' E 003°42'0 0.0
2015-Sep-04 13:33N 51°28' E 003°42'0 0.0
2015-Sep-04 12:33N 51°28' E 003°42'0 0.0
2015-Sep-04 11:33N 51°28' E 003°42'0 0.0
2015-Sep-04 10:33N 51°28' E 003°42'0 0.0
2015-Sep-04 09:33N 51°28' E 003°42'0 0.0
2015-Sep-04 08:33N 51°28' E 003°42'0 0.0
2015-Sep-04 07:33N 51°28' E 003°42'4 4.3
2015-Sep-04 06:34N 51°26' E 003°36'1212.4
2015-Sep-04 05:33N 51°35' E 003°23'10 9.8
2015-Sep-04 04:32N 51°45' E 003°18'6 0.5
2015-Sep-03 17:33N 51°49' E 003°22'11013.7
2015-Sep-03 09:33N 53°29' E 004°38'1312.8
2015-Sep-03 08:33N 53°33' E 004°59'1312.7
2015-Sep-03 07:33N 53°37' E 005°19'1413.8
2015-Sep-03 06:33N 53°41' E 005°41'1514.7
2015-Sep-03 05:34N 53°46' E 006°05'1614.9
2015-Sep-03 04:31N 53°52' E 006°29'1414.4
2015-Sep-03 03:33N 53°55' E 006°52'1414.1
2015-Sep-03 02:33N 53°58' E 007°16'1413.4
2015-Sep-03 01:33N 54°01' E 007°38'1212.6
2015-Sep-03 00:33N 54°01' E 007°59'1111.2
2015-Sep-02 23:33N 53°60' E 008°18'1212.5
2015-Sep-02 22:33N 53°57' E 008°39'1313.4
2015-Sep-02 21:34N 53°51' E 008°59'6 6.1
2015-Sep-02 20:33N 53°54' E 009°09'5 5.2
2015-Sep-02 19:34N 53°57' E 009°15'9 8.8
2015-Sep-02 18:33N 54°06' E 009°20'8 8.1
2015-Sep-02 17:33N 54°11' E 009°30'4 3.9
2015-Sep-02 16:33N 54°13' E 009°36'7 6.6
2015-Sep-02 15:33N 54°18' E 009°43'7 6.7
2015-Sep-02 14:33N 54°21' E 009°53'4 4.2
2015-Sep-02 13:33N 54°21' E 010°00'4 4.3
2015-Sep-02 12:33N 54°22' E 010°07'1 1.1
2015-Sep-02 11:34N 54°22' E 010°09'8 7.6
2015-Sep-02 10:33N 54°29' E 010°15'1212.2
2015-Sep-02 09:33N 54°34' E 010°34'1413.7
2015-Sep-02 08:33N 54°36' E 010°58'1312.7
2015-Sep-02 07:33N 54°34' E 011°19'1312.9
2015-Sep-02 06:33N 54°28' E 011°39'1212.4
2015-Sep-02 05:33N 54°26' E 012°00'1211.5
2015-Sep-02 04:32N 54°35' E 012°14'5413.4
2015-Sep-02 00:31N 54°59' E 013°38'1313.4
2015-Sep-01 23:33N 55°03' E 013°58'1313.1
2015-Sep-01 22:34N 55°12' E 014°16'1413.9
2015-Sep-01 21:33N 55°23' E 014°31'1413.8
2015-Sep-01 20:34N 55°31' E 014°50'1414.1
2015-Sep-01 19:33N 55°38' E 015°12'2814.0
2015-Sep-01 17:34N 55°52' E 015°55'31814.2
2015-Aug-31 19:09N 59°36' E 022°60'914.7
2015-Aug-31 18:30N 59°38' E 023°18'1414.6
2015-Aug-31 17:33N 59°42' E 023°44'1614.5
2015-Aug-31 16:26N 59°46' E 024°15'4214.3
2015-Aug-31 13:28N 60°02' E 025°33'34 1.2
2015-Aug-30 09:15N 59°44' E 024°37'1115.8
2015-Aug-30 08:33N 59°42' E 024°16'1615.7
2015-Aug-30 07:33N 59°37' E 023°46'1615.7
2015-Aug-30 06:33N 59°32' E 023°16'34615.6
2015-Aug-29 08:20N 55°37' E 015°23'1316.0
2015-Aug-29 07:34N 55°31' E 015°04'1616.1
2015-Aug-29 06:34N 55°23' E 014°39'1616.1
2015-Aug-29 05:34N 55°10' E 014°22'1515.5
2015-Aug-29 04:33N 54°60' E 014°02'1615.8
2015-Aug-29 03:33N 54°55' E 013°36'1815.8
2015-Aug-29 02:26N 54°49' E 013°07'1416.0
2015-Aug-29 01:33N 54°44' E 012°43'1816.0
2015-Aug-29 00:27N 54°35' E 012°18'1314.7
2015-Aug-28 23:33N 54°24' E 012°04'1615.8
2015-Aug-28 22:33N 54°27' E 011°38'1616.4
2015-Aug-28 21:34N 54°34' E 011°12'1616.3
2015-Aug-28 20:33N 54°34' E 010°44'1515.4
2015-Aug-28 19:34N 54°30' E 010°19'10 9.6
2015-Aug-28 18:33N 54°22' E 010°09'3 3.4
2015-Aug-28 17:33N 54°22' E 010°03'3 3.4
2015-Aug-28 16:33N 54°20' E 009°57'6 6.3
2015-Aug-28 15:33N 54°21' E 009°47'8 7.6
2015-Aug-28 14:33N 54°16' E 009°38'5 5.2
2015-Aug-28 13:33N 54°12' E 009°32'8 8.1
2015-Aug-28 12:31N 54°08' E 009°20'8 8.2
2015-Aug-28 11:33N 53°60' E 009°17'8 8.0
2015-Aug-28 10:33N 53°54' E 009°09'2 2.0
2015-Aug-28 09:33N 53°53' E 009°12'1212.5
2015-Aug-28 08:34N 53°44' E 009°27'5 0.2
2015-Aug-27 07:23N 53°39' E 009°31'6 7.6
2015-Aug-27 06:34N 53°44' E 009°25'1312.9
2015-Aug-27 05:33N 53°53' E 009°09'1 1.4
2015-Aug-27 04:33N 53°54' E 009°10'1 1.5
2015-Aug-27 03:33N 53°55' E 009°11'8 7.9
2015-Aug-27 02:33N 54°02' E 009°18'7 7.0
2015-Aug-27 01:31N 54°09' E 009°22'1 0.6
2015-Aug-27 00:27N 54°09' E 009°23'7 7.7
2015-Aug-26 23:33N 54°12' E 009°33'5 4.1
2015-Aug-26 22:28N 54°16' E 009°38'6 7.0
2015-Aug-26 21:33N 54°21' E 009°45'8 8.1
2015-Aug-26 20:33N 54°21' E 009°59'6 5.7
2015-Aug-26 19:33N 54°22' E 010°08'1 1.4
2015-Aug-26 18:33N 54°23' E 010°11'8 8.4
2015-Aug-26 17:33N 54°30' E 010°17'2 1.6
2015-Aug-26 16:33N 54°32' E 010°17'1 1.1
2015-Aug-26 15:33N 54°32' E 010°19'8 7.6
2015-Aug-26 14:33N 54°34' E 010°32'1514.9
2015-Aug-26 13:33N 54°36' E 010°57'1414.2
2015-Aug-26 12:33N 54°33' E 011°21'1414.2
2015-Aug-26 11:33N 54°28' E 011°44'1414.0
2015-Aug-26 10:33N 54°27' E 012°08'5513.1
2015-Aug-26 06:24N 54°57' E 013°27'1214.5
2015-Aug-26 05:33N 55°01' E 013°47'1413.9
2015-Aug-26 04:34N 55°07' E 014°09'1414.1
2015-Aug-26 03:33N 55°18' E 014°24'1414.0
2015-Aug-26 02:33N 55°28' E 014°41'1414.1
2015-Aug-26 01:33N 55°35' E 015°02'1414.1
2015-Aug-26 00:33N 55°42' E 015°24'  

Dump ship's entire track history